createdAt,value
2022-09-10T00:00:35.409Z,98.65
2022-09-10T00:01:35.471Z,98.54
2022-09-10T00:02:35.366Z,98.54
2022-09-10T00:03:35.331Z,98.65
2022-09-10T00:04:35.355Z,98.74
2022-09-10T00:05:35.287Z,98.65
2022-09-10T00:06:35.388Z,98.74
2022-09-10T00:07:35.281Z,98.85
2022-09-10T00:08:35.321Z,98.74
2022-09-10T00:09:35.224Z,98.85
2022-09-10T00:10:35.261Z,98.85
2022-09-10T00:11:35.226Z,98.85
2022-09-10T00:12:35.200Z,98.74
2022-09-10T00:13:35.212Z,98.74
2022-09-10T00:14:35.197Z,98.74
2022-09-10T00:15:35.182Z,98.65
2022-09-10T00:16:35.184Z,98.65
2022-09-10T00:17:35.169Z,98.44
2022-09-10T00:18:35.177Z,98.65
2022-09-10T00:19:35.174Z,98.65
2022-09-10T00:20:35.126Z,98.65
2022-09-10T00:21:35.105Z,98.65
2022-09-10T00:22:35.106Z,98.54
2022-09-10T00:23:35.118Z,98.54
2022-09-10T00:24:35.084Z,98.54
2022-09-10T00:25:35.063Z,98.54
2022-09-10T00:26:35.055Z,98.54
2022-09-10T00:27:35.041Z,98.44
2022-09-10T00:28:35.105Z,98.44
2022-09-10T00:29:35.020Z,98.44
2022-09-10T00:30:35.009Z,98.44
2022-09-10T00:31:35.059Z,98.54
2022-09-10T00:32:35.034Z,98.54
2022-09-10T00:33:35.002Z,98.54
2022-09-10T00:34:34.964Z,98.54
2022-09-10T00:35:34.948Z,98.54
2022-09-10T00:36:34.944Z,98.65
2022-09-10T00:37:34.966Z,98.65
2022-09-10T00:38:35.032Z,98.65
2022-09-10T00:39:34.941Z,98.65
2022-09-10T00:40:34.978Z,98.65
2022-09-10T00:41:34.906Z,98.54
2022-09-10T00:42:34.876Z,98.85
2022-09-10T00:43:34.902Z,98.80
2022-09-10T00:44:35.686Z,98.90
2022-09-10T00:45:34.870Z,99.01
2022-09-10T00:46:34.840Z,99.10
2022-09-10T00:47:34.798Z,99.01
2022-09-10T00:48:34.885Z,99.30
2022-09-10T00:49:34.787Z,99.41
2022-09-10T00:50:34.777Z,99.51
2022-09-10T00:51:34.750Z,99.41
2022-09-10T00:52:39.443Z,99.51
2022-09-10T00:53:34.751Z,99.41
2022-09-10T00:54:34.786Z,99.51
2022-09-10T00:55:34.729Z,99.41
2022-09-10T00:56:34.713Z,99.51
2022-09-10T00:57:34.680Z,99.61
2022-09-10T00:58:34.792Z,99.61
2022-09-10T00:59:34.662Z,99.61
2022-09-10T01:00:34.719Z,99.61
2022-09-10T01:01:34.697Z,99.51
2022-09-10T01:02:34.656Z,99.61
2022-09-10T01:03:34.688Z,99.71
2022-09-10T01:04:34.659Z,99.61
2022-09-10T01:05:34.615Z,99.71
2022-09-10T01:06:34.611Z,99.71
2022-09-10T01:07:34.577Z,99.71
2022-09-10T01:08:34.684Z,99.61
2022-09-10T01:09:34.557Z,99.71
2022-09-10T01:10:34.543Z,99.71
2022-09-10T01:11:34.950Z,99.76
2022-09-10T01:12:36.113Z,99.71
2022-09-10T01:13:34.525Z,99.81
2022-09-10T01:14:34.512Z,99.91
2022-09-10T01:15:34.497Z,99.81
2022-09-10T01:16:34.523Z,99.91
2022-09-10T01:17:34.481Z,99.91
2022-09-10T01:18:34.493Z,99.91
2022-09-10T01:19:34.471Z,99.99
2022-09-10T01:20:34.438Z,99.99
2022-09-10T01:21:34.429Z,99.99
2022-09-10T01:22:34.411Z,99.99
2022-09-10T01:23:34.718Z,99.99
2022-09-10T01:24:34.375Z,99.99
2022-09-10T01:25:34.375Z,99.99
2022-09-10T01:26:34.389Z,99.99
2022-09-10T01:27:34.373Z,99.99
2022-09-10T01:28:34.411Z,99.99
2022-09-10T01:29:34.360Z,99.99
2022-09-10T01:30:34.351Z,99.91
2022-09-10T01:31:34.336Z,99.99
2022-09-10T01:32:34.295Z,99.99
2022-09-10T01:33:34.338Z,99.99
2022-09-10T01:34:34.293Z,99.91
2022-09-10T01:35:34.280Z,99.91
2022-09-10T01:36:34.277Z,99.91
2022-09-10T01:37:34.248Z,99.91
2022-09-10T01:38:34.379Z,99.91
2022-09-10T01:39:34.288Z,99.81
2022-09-10T01:40:34.203Z,99.66
2022-09-10T01:41:34.210Z,99.86
2022-09-10T01:42:34.177Z,99.81
2022-09-10T01:43:34.206Z,99.81
2022-09-10T01:44:34.204Z,99.61
2022-09-10T01:45:34.225Z,99.76
2022-09-10T01:46:34.121Z,99.86
2022-09-10T01:47:34.122Z,99.86
2022-09-10T01:48:34.138Z,99.76
2022-09-10T01:49:34.087Z,99.71
2022-09-10T01:50:34.104Z,99.71
2022-09-10T01:51:34.083Z,99.66
2022-09-10T01:52:34.066Z,99.66
2022-09-10T01:53:34.073Z,99.76
2022-09-10T01:54:34.043Z,99.71
2022-09-10T01:55:34.020Z,99.46
2022-09-10T01:56:34.045Z,99.55
2022-09-10T01:57:34.027Z,99.66
2022-09-10T01:58:34.099Z,99.66
2022-09-10T01:59:34.028Z,99.66
2022-09-10T02:00:33.989Z,99.66
2022-09-10T02:01:34.009Z,99.55
2022-09-10T02:02:33.942Z,99.51
2022-09-10T02:03:33.961Z,99.51
2022-09-10T02:04:33.928Z,99.41
2022-09-10T02:05:33.934Z,99.41
2022-09-10T02:06:33.893Z,99.41
2022-09-10T02:07:33.879Z,99.30
2022-09-10T02:08:33.941Z,99.30
2022-09-10T02:09:33.983Z,99.15
2022-09-10T02:10:33.846Z,99.35
2022-09-10T02:11:33.867Z,99.25
2022-09-10T02:12:33.820Z,99.35
2022-09-10T02:13:33.833Z,99.35
2022-09-10T02:14:33.863Z,99.25
2022-09-10T02:15:33.791Z,99.25
2022-09-10T02:16:33.923Z,99.46
2022-09-10T02:17:33.787Z,99.55
2022-09-10T02:18:33.776Z,99.55
2022-09-10T02:19:33.796Z,99.46
2022-09-10T02:20:33.751Z,99.46
2022-09-10T02:21:33.761Z,99.35
2022-09-10T02:22:33.739Z,99.46
2022-09-10T02:23:33.735Z,99.41
2022-09-10T02:24:33.686Z,99.41
2022-09-10T02:25:33.665Z,99.30
2022-09-10T02:26:33.659Z,99.21
2022-09-10T02:27:33.650Z,99.21
2022-09-10T02:28:33.682Z,99.21
2022-09-10T02:29:33.655Z,99.10
2022-09-10T02:30:33.624Z,99.10
2022-09-10T02:31:33.669Z,99.10
2022-09-10T02:32:33.602Z,99.01
2022-09-10T02:33:33.618Z,99.10
2022-09-10T02:34:33.613Z,99.01
2022-09-10T02:35:33.604Z,99.05
2022-09-10T02:36:33.548Z,99.05
2022-09-10T02:37:33.553Z,99.01
2022-09-10T02:38:33.534Z,99.10
2022-09-10T02:39:33.579Z,99.10
2022-09-10T02:40:33.522Z,99.10
2022-09-10T02:41:33.505Z,99.01
2022-09-10T02:42:33.475Z,98.80
2022-09-10T02:43:33.564Z,98.60
2022-09-10T02:44:33.463Z,98.80
2022-09-10T02:45:33.526Z,98.65
2022-09-10T02:46:33.433Z,98.74
2022-09-10T02:47:33.447Z,98.85
2022-09-10T02:48:33.448Z,98.85
2022-09-10T02:49:33.392Z,99.05
2022-09-10T02:50:33.438Z,99.05
2022-09-10T02:51:33.381Z,99.15
2022-09-10T02:52:33.375Z,99.15
2022-09-10T02:53:33.395Z,98.95
2022-09-10T02:54:33.343Z,99.05
2022-09-10T02:55:33.360Z,99.05
2022-09-10T02:56:33.351Z,99.05
2022-09-10T02:57:33.302Z,99.05
2022-09-10T02:58:33.324Z,99.05
2022-09-10T02:59:33.290Z,98.95
2022-09-10T03:00:33.285Z,98.95
2022-09-10T03:01:33.307Z,99.05
2022-09-10T03:02:33.261Z,99.01
2022-09-10T03:03:33.329Z,99.01
2022-09-10T03:04:33.232Z,99.10
2022-09-10T03:05:33.239Z,99.01
2022-09-10T03:06:33.224Z,99.01
2022-09-10T03:07:33.200Z,99.01
2022-09-10T03:08:33.228Z,98.85
2022-09-10T03:09:33.188Z,98.85
2022-09-10T03:10:33.166Z,98.95
2022-09-10T03:11:33.174Z,98.95
2022-09-10T03:12:33.149Z,98.95
2022-09-10T03:13:33.166Z,98.95
2022-09-10T03:14:33.141Z,98.90
2022-09-10T03:15:33.119Z,98.85
2022-09-10T03:16:33.107Z,98.85
2022-09-10T03:17:33.089Z,98.95
2022-09-10T03:18:33.118Z,98.80
2022-09-10T03:19:33.049Z,98.80
2022-09-10T03:20:33.070Z,98.80
2022-09-10T03:21:33.065Z,98.80
2022-09-10T03:22:33.046Z,98.90
2022-09-10T03:23:33.035Z,98.80
2022-09-10T03:24:32.996Z,98.80
2022-09-10T03:25:32.989Z,98.70
2022-09-10T03:26:33.004Z,98.70
2022-09-10T03:27:33.014Z,98.70
2022-09-10T03:28:33.006Z,98.70
2022-09-10T03:29:32.969Z,98.70
2022-09-10T03:30:32.965Z,98.60
2022-09-10T03:31:32.962Z,98.50
2022-09-10T03:32:32.907Z,98.50
2022-09-10T03:33:32.927Z,98.39
2022-09-10T03:34:32.942Z,98.39
2022-09-10T03:35:32.889Z,98.39
2022-09-10T03:36:32.862Z,98.39
2022-09-10T03:37:32.864Z,98.39
2022-09-10T03:38:32.858Z,98.29
2022-09-10T03:39:32.884Z,98.29
2022-09-10T03:40:32.839Z,98.29
2022-09-10T03:41:32.807Z,98.29
2022-09-10T03:42:32.862Z,98.29
2022-09-10T03:43:32.857Z,98.24
2022-09-10T03:44:32.808Z,98.24
2022-09-10T03:45:32.782Z,98.34
2022-09-10T03:46:32.753Z,98.44
2022-09-10T03:47:32.790Z,98.44
2022-09-10T03:48:32.747Z,98.44
2022-09-10T03:49:32.759Z,98.34
2022-09-10T03:50:32.712Z,98.44
2022-09-10T03:51:32.752Z,98.39
2022-09-10T03:52:32.679Z,98.44
2022-09-10T03:53:32.683Z,98.44
2022-09-10T03:54:32.708Z,98.44
2022-09-10T03:55:32.657Z,98.44
2022-09-10T03:56:32.638Z,98.50
2022-09-10T03:57:32.652Z,98.50
2022-09-10T03:58:32.642Z,98.50
2022-09-10T03:59:32.642Z,98.44
2022-09-10T04:00:32.613Z,98.44
2022-09-10T04:01:32.576Z,98.44
2022-09-10T04:02:32.556Z,98.44
2022-09-10T04:03:32.594Z,98.39
2022-09-10T04:04:32.594Z,98.39
2022-09-10T04:05:34.328Z,98.39
2022-09-10T04:06:32.511Z,98.39
2022-09-10T04:07:32.501Z,98.39
2022-09-10T04:08:32.516Z,98.39
2022-09-10T04:09:32.528Z,98.39
2022-09-10T04:10:32.590Z,98.39
2022-09-10T04:11:32.499Z,98.39
2022-09-10T04:12:32.444Z,98.39
2022-09-10T04:13:32.520Z,98.29
2022-09-10T04:14:32.454Z,98.39
2022-09-10T04:15:32.441Z,98.29
2022-09-10T04:16:32.477Z,98.29
2022-09-10T04:17:32.411Z,98.29
2022-09-10T04:18:32.393Z,98.19
2022-09-10T04:19:32.377Z,98.19
2022-09-10T04:20:32.375Z,98.09
2022-09-10T04:21:32.350Z,98.09
2022-09-10T04:22:32.343Z,98.19
2022-09-10T04:23:32.328Z,98.09
2022-09-10T04:24:32.320Z,98.09
2022-09-10T04:25:32.319Z,98.09
2022-09-10T04:26:32.349Z,98.09
2022-09-10T04:27:32.272Z,98.09
2022-09-10T04:28:32.285Z,98.09
2022-09-10T04:29:32.259Z,97.99
2022-09-10T04:30:32.266Z,97.99
2022-09-10T04:31:32.306Z,97.79
2022-09-10T04:32:32.216Z,97.89
2022-09-10T04:33:32.205Z,97.89
2022-09-10T04:34:32.203Z,97.79
2022-09-10T04:35:32.193Z,97.89
2022-09-10T04:36:32.190Z,97.89
2022-09-10T04:37:32.171Z,97.89
2022-09-10T04:38:32.197Z,97.99
2022-09-10T04:39:32.229Z,97.99
2022-09-10T04:40:32.128Z,97.99
2022-09-10T04:41:32.126Z,98.09
2022-09-10T04:42:32.166Z,97.99
2022-09-10T04:43:32.091Z,97.99
2022-09-10T04:44:32.124Z,97.99
2022-09-10T04:45:32.093Z,97.99
2022-09-10T04:46:32.066Z,97.94
2022-09-10T04:47:32.082Z,97.94
2022-09-10T04:48:32.039Z,97.85
2022-09-10T04:49:32.052Z,97.94
2022-09-10T04:50:32.008Z,97.94
2022-09-10T04:51:32.025Z,97.94
2022-09-10T04:52:32.074Z,97.94
2022-09-10T04:53:32.010Z,97.94
2022-09-10T04:54:31.962Z,97.94
2022-09-10T04:55:31.970Z,97.94
2022-09-10T04:56:31.946Z,97.94
2022-09-10T04:57:31.928Z,97.94
2022-09-10T04:58:37.952Z,97.94
2022-09-10T04:59:31.931Z,97.94
2022-09-10T05:00:31.893Z,97.94
2022-09-10T05:01:31.894Z,97.94
2022-09-10T05:02:31.927Z,97.94
2022-09-10T05:03:31.980Z,97.94
2022-09-10T05:04:31.885Z,98.05
2022-09-10T05:05:31.875Z,97.94
2022-09-10T05:06:31.840Z,97.94
2022-09-10T05:07:31.811Z,98.05
2022-09-10T05:08:31.869Z,97.94
2022-09-10T05:09:31.840Z,97.94
2022-09-10T05:10:31.839Z,98.05
2022-09-10T05:11:31.761Z,97.94
2022-09-10T05:12:31.775Z,97.94
2022-09-10T05:13:31.852Z,98.14
2022-09-10T05:14:31.868Z,98.25
2022-09-10T05:15:31.737Z,98.29
2022-09-10T05:16:31.789Z,98.25
2022-09-10T05:17:31.721Z,98.35
2022-09-10T05:18:31.823Z,98.35
2022-09-10T05:19:31.716Z,98.35
2022-09-10T05:20:31.712Z,98.35
2022-09-10T05:21:31.674Z,98.35
2022-09-10T05:22:37.190Z,98.35
2022-09-10T05:23:31.657Z,98.25
2022-09-10T05:24:31.713Z,98.25
2022-09-10T05:25:31.612Z,98.14
2022-09-10T05:26:31.640Z,98.14
2022-09-10T05:27:31.609Z,98.14
2022-09-10T05:28:31.638Z,98.14
2022-09-10T05:29:31.595Z,98.14
2022-09-10T05:30:31.561Z,98.05
2022-09-10T05:31:31.583Z,98.14
2022-09-10T05:32:31.567Z,98.05
2022-09-10T05:33:31.574Z,98.05
2022-09-10T05:34:31.532Z,98.05
2022-09-10T05:35:31.515Z,98.05
2022-09-10T05:36:31.488Z,98.05
2022-09-10T05:37:31.543Z,98.05
2022-09-10T05:38:31.630Z,97.94
2022-09-10T05:39:31.512Z,97.94
2022-09-10T05:40:31.474Z,98.05
2022-09-10T05:41:31.426Z,98.05
2022-09-10T05:42:31.427Z,97.90
2022-09-10T05:43:31.405Z,97.90
2022-09-10T05:44:31.383Z,97.90
2022-09-10T05:45:31.450Z,97.94
2022-09-10T05:46:31.386Z,97.90
2022-09-10T05:47:31.482Z,98.00
2022-09-10T05:48:31.402Z,98.00
2022-09-10T05:49:31.334Z,98.00
2022-09-10T05:50:31.340Z,98.10
2022-09-10T05:51:31.364Z,98.10
2022-09-10T05:52:32.162Z,98.10
2022-09-10T05:53:31.321Z,98.10
2022-09-10T05:54:31.312Z,98.10
2022-09-10T05:55:31.278Z,98.00
2022-09-10T05:56:31.355Z,97.90
2022-09-10T05:57:31.277Z,97.90
2022-09-10T05:58:31.354Z,97.90
2022-09-10T05:59:31.225Z,97.80
2022-09-10T06:00:31.227Z,97.80
2022-09-10T06:01:31.255Z,97.80
2022-09-10T06:02:31.316Z,97.80
2022-09-10T06:03:31.176Z,97.80
2022-09-10T06:04:31.178Z,97.80
2022-09-10T06:05:31.167Z,97.80
2022-09-10T06:06:31.234Z,97.90
2022-09-10T06:07:31.179Z,97.69
2022-09-10T06:08:31.215Z,97.80
2022-09-10T06:09:31.135Z,97.80
2022-09-10T06:10:31.142Z,97.69
2022-09-10T06:11:31.164Z,97.85
2022-09-10T06:12:31.160Z,97.80
2022-09-10T06:13:31.193Z,98.05
2022-09-10T06:14:31.105Z,98.05
2022-09-10T06:15:31.152Z,98.05
2022-09-10T06:16:32.122Z,98.05
2022-09-10T06:17:33.294Z,97.94
2022-09-10T06:18:37.875Z,97.99
2022-09-10T06:19:36.200Z,98.09
2022-09-10T06:38:46.121Z,99.10
2022-09-10T06:39:47.097Z,99.21
2022-09-10T06:40:47.089Z,99.16
2022-09-10T06:41:49.735Z,99.26
2022-09-10T06:42:47.246Z,99.16
2022-09-10T06:43:47.237Z,99.21
2022-09-10T06:44:46.982Z,99.16
2022-09-10T06:45:47.046Z,99.16
2022-09-10T06:48:34.767Z,99.26
2022-09-10T06:48:48.160Z,99.26
2022-09-10T06:49:47.066Z,99.21
2022-09-10T06:50:47.220Z,99.21
2022-09-10T06:51:47.081Z,99.30
2022-09-10T06:52:47.088Z,99.30
2022-09-10T06:53:47.392Z,99.26
2022-09-10T06:54:47.016Z,99.46
2022-09-10T06:55:47.090Z,99.36
2022-09-10T06:56:46.926Z,99.41
2022-09-10T06:57:46.961Z,99.51
2022-09-10T06:58:47.018Z,99.46
2022-09-10T06:59:46.830Z,99.46
2022-09-10T07:00:46.929Z,99.26
2022-09-10T07:01:46.818Z,99.36
2022-09-10T07:02:46.921Z,99.46
2022-09-10T07:03:46.841Z,99.46
2022-09-10T07:04:46.736Z,99.46
2022-09-10T07:05:46.973Z,99.46
2022-09-10T07:06:46.756Z,99.56
2022-09-10T07:07:46.916Z,99.56
2022-09-10T07:08:46.798Z,99.56
2022-09-10T07:09:46.873Z,99.56
2022-09-10T07:10:46.820Z,99.56
2022-09-10T07:11:46.773Z,99.66
2022-09-10T07:12:46.748Z,99.66
2022-09-10T07:13:46.705Z,99.66
2022-09-10T07:14:46.657Z,99.56
2022-09-10T07:15:46.793Z,99.77
2022-09-10T07:16:46.631Z,99.77
2022-09-10T07:17:46.741Z,99.66
2022-09-10T07:18:46.640Z,99.77
2022-09-10T07:19:46.759Z,99.56
2022-09-10T07:20:46.649Z,99.77
2022-09-10T07:21:46.609Z,99.56
2022-09-10T07:22:46.556Z,99.56
2022-09-10T07:23:46.576Z,99.77
2022-09-10T07:24:46.560Z,99.77
2022-09-10T07:25:46.594Z,99.46
2022-09-10T07:26:46.586Z,99.66
2022-09-10T07:27:46.479Z,99.66
2022-09-10T07:28:48.055Z,99.77
2022-09-10T07:29:46.489Z,99.97
2022-09-10T07:30:46.544Z,99.87
2022-09-10T07:31:46.468Z,99.99
2022-09-10T07:32:46.410Z,99.97
2022-09-10T07:33:46.427Z,99.92
2022-09-10T07:34:46.461Z,99.82
2022-09-10T07:35:46.404Z,99.92
2022-09-10T07:36:46.535Z,99.82
2022-09-10T07:37:46.413Z,99.99
2022-09-10T07:38:46.390Z,99.99
2022-09-10T07:39:46.445Z,99.99
2022-09-10T07:40:46.433Z,99.99
2022-09-10T07:41:46.359Z,99.72
2022-09-10T07:42:46.370Z,99.92
2022-09-10T07:43:46.375Z,99.82
2022-09-10T07:44:46.344Z,99.98
2022-09-10T07:45:46.359Z,99.99
2022-09-10T07:46:46.450Z,99.99
2022-09-10T07:47:46.351Z,99.87
2022-09-10T07:48:46.588Z,99.98
2022-09-10T07:49:46.274Z,99.87
2022-09-10T07:50:46.440Z,99.98
2022-09-10T07:51:46.254Z,99.98
2022-09-10T07:52:46.352Z,99.99
2022-09-10T07:53:50.599Z,99.98
2022-09-10T07:54:46.644Z,99.98
2022-09-10T07:55:46.473Z,99.87
2022-09-10T07:56:46.389Z,99.87
2022-09-10T07:57:46.322Z,99.67
2022-09-10T07:58:46.262Z,99.62
2022-09-10T07:59:46.227Z,99.99
2022-09-10T08:00:46.206Z,99.99
2022-09-10T08:01:46.368Z,99.99
2022-09-10T08:02:46.158Z,99.99
2022-09-10T08:03:46.292Z,99.99
2022-09-10T08:04:46.448Z,99.98
2022-09-10T08:05:46.480Z,99.99
2022-09-10T08:06:46.246Z,99.99
2022-09-10T08:07:46.361Z,99.99
2022-09-10T08:08:46.269Z,99.99
2022-09-10T08:09:46.390Z,99.99
2022-09-10T08:10:46.245Z,99.99
2022-09-10T08:11:46.224Z,99.99
2022-09-10T08:12:45.988Z,99.99
2022-09-10T08:13:46.121Z,99.83
2022-09-10T08:14:46.244Z,99.93
2022-09-10T08:15:46.196Z,99.93
2022-09-10T08:16:46.006Z,99.42
2022-09-10T08:17:46.049Z,99.57
2022-09-10T08:18:46.135Z,99.77
2022-09-10T08:19:46.302Z,99.98
2022-09-10T08:20:46.026Z,99.77
2022-09-10T08:21:46.540Z,99.67
2022-09-10T08:22:46.192Z,99.98
2022-09-10T08:23:45.957Z,99.99
2022-09-10T08:24:45.939Z,99.99
2022-09-10T08:25:46.016Z,99.99
2022-09-10T08:26:46.108Z,99.99
2022-09-10T08:27:46.235Z,99.99
2022-09-10T08:28:45.986Z,99.99
2022-09-10T08:29:45.862Z,99.98
2022-09-10T08:30:46.155Z,99.99
2022-09-10T08:31:46.140Z,99.88
2022-09-10T08:32:45.970Z,99.78
2022-09-10T08:33:46.063Z,99.78
2022-09-10T08:34:46.441Z,99.88
2022-09-10T08:35:46.162Z,99.78
2022-09-10T08:36:45.848Z,99.07
2022-09-10T08:37:46.002Z,99.48
2022-09-10T08:38:45.846Z,99.42
2022-09-10T08:39:46.000Z,99.68
2022-09-10T08:40:45.982Z,99.78
2022-09-10T08:41:45.901Z,99.42
2022-09-10T08:42:45.771Z,99.52
2022-09-10T08:43:45.846Z,99.32
2022-09-10T08:44:45.865Z,99.22
2022-09-10T08:45:45.856Z,99.32
2022-09-10T08:46:45.790Z,99.27
2022-09-10T08:47:45.732Z,99.27
2022-09-10T08:48:45.731Z,99.27
2022-09-10T08:49:45.593Z,99.18
2022-09-10T08:50:45.778Z,99.27
2022-09-10T08:51:45.821Z,99.33
2022-09-10T08:52:45.601Z,99.33
2022-09-10T08:53:45.869Z,98.97
2022-09-10T08:54:45.578Z,98.77
2022-09-10T08:55:48.765Z,98.77
2022-09-10T08:56:45.643Z,99.43
2022-09-10T08:57:45.452Z,99.33
2022-09-10T08:58:45.464Z,98.93
2022-09-10T08:59:45.468Z,99.22
2022-09-10T09:00:45.433Z,99.13
2022-09-10T09:01:45.695Z,99.08
2022-09-10T09:02:49.151Z,98.88
2022-09-10T09:03:45.518Z,98.78
2022-09-10T09:04:45.416Z,98.27
2022-09-10T09:05:45.404Z,98.17
2022-09-10T09:06:45.435Z,98.43
2022-09-10T09:07:45.382Z,97.97
2022-09-10T09:08:45.387Z,97.82
2022-09-10T09:09:45.414Z,97.72
2022-09-10T09:10:45.681Z,97.12
2022-09-10T09:11:45.435Z,97.36
2022-09-10T09:12:45.401Z,97.42
2022-09-10T09:13:45.411Z,97.52
2022-09-10T09:14:45.312Z,97.82
2022-09-10T09:15:54.003Z,96.92
2022-09-10T09:16:45.383Z,97.12
2022-09-10T09:17:45.330Z,97.17
2022-09-10T09:18:45.811Z,97.27
2022-09-10T09:19:45.318Z,97.93
2022-09-10T09:20:45.205Z,96.78
2022-09-10T09:21:45.264Z,96.68
2022-09-10T09:22:45.316Z,96.58
2022-09-10T09:24:09.292Z,97.13
2022-09-10T09:24:45.270Z,97.33
2022-09-10T09:25:45.410Z,96.93
2022-09-10T09:27:57.415Z,94.16
2022-09-10T09:28:58.316Z,93.96
2022-09-10T09:29:57.892Z,94.76
2022-09-10T09:30:58.001Z,93.81
2022-09-10T09:31:58.994Z,94.52
2022-09-10T09:32:58.665Z,93.91
2022-09-10T09:35:21.550Z,93.21
2022-09-10T09:38:05.583Z,93.46
2022-09-10T09:39:08.897Z,92.91
2022-09-10T09:40:05.260Z,92.76
2022-09-10T09:41:07.166Z,93.27
2022-09-10T09:42:17.424Z,94.02
2022-09-10T09:43:06.239Z,93.62
2022-09-10T09:44:05.985Z,93.52
2022-09-10T09:45:06.803Z,93.32
2022-09-10T09:46:06.884Z,93.02
2022-09-10T09:47:06.547Z,93.22
2022-09-10T09:48:06.940Z,92.02
2022-09-10T09:50:21.104Z,90.25
2022-09-10T09:51:21.438Z,91.75
2022-09-10T09:52:22.297Z,93.02
2022-09-10T09:53:21.038Z,91.96
2022-09-10T09:55:21.393Z,91.19
2022-09-10T09:56:20.879Z,90.99
2022-09-10T09:57:20.929Z,91.50
2022-09-10T09:58:20.794Z,89.99
2022-09-10T09:59:21.188Z,91.09
2022-09-10T10:00:21.199Z,91.30
2022-09-10T10:01:20.916Z,90.69
2022-09-10T10:02:20.797Z,91.60
2022-09-10T10:03:20.748Z,90.39
2022-09-10T10:04:20.724Z,89.32
2022-09-10T10:05:20.979Z,90.09
2022-09-10T10:06:20.734Z,90.89
2022-09-10T10:07:20.921Z,90.49
2022-09-10T10:08:20.701Z,90.79
2022-09-10T10:09:20.756Z,91.86
2022-09-10T10:10:20.730Z,90.49
2022-09-10T10:11:20.826Z,90.85
2022-09-10T10:12:20.692Z,90.69
2022-09-10T10:13:20.671Z,90.59
2022-09-10T10:14:20.610Z,91.15
2022-09-10T10:15:20.651Z,91.46
2022-09-10T10:16:20.701Z,90.29
2022-09-10T10:17:20.607Z,90.39
2022-09-10T10:18:20.617Z,90.79
2022-09-10T10:19:20.585Z,90.39
2022-09-10T10:20:20.577Z,89.83
2022-09-10T10:21:20.613Z,90.94
2022-09-10T10:22:20.638Z,91.50
2022-09-10T10:23:20.588Z,92.30
2022-09-10T10:24:20.593Z,92.40
2022-09-10T10:25:20.571Z,92.30
2022-09-10T10:26:20.631Z,92.10
2022-09-10T10:27:20.507Z,90.49
2022-09-10T10:28:20.530Z,90.59
2022-09-10T10:29:20.454Z,90.89
2022-09-10T10:30:20.606Z,92.71
2022-09-10T10:31:20.558Z,93.07
2022-09-10T10:32:20.513Z,92.96
2022-09-10T10:33:20.456Z,93.27
2022-09-10T10:34:20.527Z,93.02
2022-09-10T10:35:20.495Z,92.72
2022-09-10T10:36:20.450Z,92.41
2022-09-10T10:37:20.444Z,90.70
2022-09-10T10:38:20.358Z,91.31
2022-09-10T10:39:20.583Z,91.77
2022-09-10T10:40:20.410Z,91.87
2022-09-10T10:41:20.499Z,91.87
2022-09-10T10:42:20.386Z,90.97
2022-09-10T10:43:20.390Z,90.97
2022-09-10T10:44:20.427Z,91.17
2022-09-10T10:45:20.568Z,90.86
2022-09-10T10:46:20.314Z,90.52
2022-09-10T10:47:20.373Z,87.95
2022-09-10T10:48:20.288Z,89.06
2022-09-10T10:49:20.224Z,90.16
2022-09-10T10:50:20.295Z,87.79
2022-09-10T10:51:20.277Z,88.29
2022-09-10T10:52:20.258Z,90.41
2022-09-10T10:53:20.372Z,89.60
2022-09-10T10:54:20.183Z,88.79
2022-09-10T10:55:20.311Z,88.79
2022-09-10T10:56:20.222Z,88.70
2022-09-10T10:57:20.205Z,89.66
2022-09-10T10:58:20.165Z,87.19
2022-09-10T10:59:20.180Z,87.29
2022-09-10T11:00:20.257Z,89.15
2022-09-10T11:01:20.183Z,88.45
2022-09-10T11:02:20.220Z,89.15
2022-09-10T11:03:20.183Z,89.15
2022-09-10T11:04:20.142Z,88.95
2022-09-10T11:05:20.130Z,87.19
2022-09-10T11:06:20.114Z,87.69
2022-09-10T11:07:20.074Z,88.09
2022-09-10T11:08:20.060Z,87.39
2022-09-10T11:09:20.024Z,88.29
2022-09-10T11:10:20.124Z,89.20
2022-09-10T11:11:20.118Z,89.50
2022-09-10T11:12:20.016Z,88.19
2022-09-10T11:13:19.978Z,88.94
2022-09-10T11:14:20.034Z,88.64
2022-09-10T11:15:20.037Z,89.44
2022-09-10T11:16:20.013Z,88.94
2022-09-10T11:17:20.176Z,90.15
2022-09-10T11:18:19.910Z,90.75
2022-09-10T11:19:19.938Z,88.48
2022-09-10T11:20:29.346Z,88.88
2022-09-10T11:21:19.922Z,89.39
2022-09-10T11:22:19.967Z,89.48
2022-09-10T11:23:19.872Z,88.48
2022-09-10T11:24:20.043Z,88.28
2022-09-10T11:25:19.871Z,88.42
2022-09-10T11:26:19.935Z,88.38
2022-09-10T11:27:20.003Z,88.68
2022-09-10T11:28:19.905Z,89.28
2022-09-10T11:29:19.897Z,89.89
2022-09-10T11:30:19.850Z,89.59
2022-09-10T11:31:19.899Z,89.99
2022-09-10T11:32:19.803Z,90.19
2022-09-10T11:33:19.911Z,89.89
2022-09-10T11:34:19.804Z,90.09
2022-09-10T11:35:19.715Z,90.29
2022-09-10T11:36:19.868Z,90.29
2022-09-10T11:37:19.733Z,89.93
2022-09-10T11:38:19.813Z,90.33
2022-09-10T11:39:19.755Z,90.73
2022-09-10T11:40:19.740Z,90.99
2022-09-10T11:41:19.771Z,91.60
2022-09-10T11:42:19.710Z,91.90
2022-09-10T11:43:19.744Z,91.80
2022-09-10T11:44:19.687Z,91.90
2022-09-10T11:45:19.715Z,91.90
2022-09-10T11:46:19.714Z,91.80
2022-09-10T11:47:19.670Z,91.80
2022-09-10T11:48:19.666Z,92.40
2022-09-10T11:49:19.666Z,92.50
2022-09-10T11:50:19.644Z,92.80
2022-09-10T11:51:19.571Z,92.30
2022-09-10T11:52:19.563Z,92.00
2022-09-10T11:53:19.538Z,92.20
2022-09-10T11:54:19.532Z,92.40
2022-09-10T11:55:19.557Z,92.40
2022-09-10T11:56:19.602Z,92.96
2022-09-10T11:57:19.500Z,93.07
2022-09-10T11:58:19.571Z,92.96
2022-09-10T11:59:19.518Z,92.86
2022-09-10T12:00:19.545Z,92.76
2022-09-10T12:01:19.697Z,92.76
2022-09-10T12:02:19.513Z,92.56
2022-09-10T12:03:19.551Z,92.56
2022-09-10T12:04:19.426Z,92.86
2022-09-10T12:05:19.433Z,92.86
2022-09-10T12:06:19.442Z,92.72
2022-09-10T12:07:19.392Z,92.72
2022-09-10T12:08:19.406Z,92.72
2022-09-10T12:09:19.490Z,91.86
2022-09-10T12:10:19.333Z,91.35
2022-09-10T12:11:19.388Z,91.05
2022-09-10T12:12:19.351Z,91.15
2022-09-10T12:13:19.428Z,91.21
2022-09-10T12:14:19.324Z,91.41
2022-09-10T12:15:19.279Z,91.91
2022-09-10T12:16:19.458Z,91.87
2022-09-10T12:17:19.245Z,90.50
2022-09-10T12:18:19.252Z,89.50
2022-09-10T12:19:19.254Z,88.49
2022-09-10T12:20:19.241Z,88.59
2022-09-10T12:21:19.268Z,89.00
2022-09-10T12:22:19.218Z,89.50
2022-09-10T12:23:19.207Z,90.16
2022-09-10T12:24:19.278Z,89.30
2022-09-10T12:25:19.190Z,88.59
2022-09-10T12:26:19.214Z,89.10
2022-09-10T12:27:19.122Z,90.11
2022-09-10T12:28:19.190Z,90.30
2022-09-10T12:29:19.094Z,91.01
2022-09-10T12:30:19.089Z,89.70
2022-09-10T12:31:19.186Z,89.80
2022-09-10T12:32:19.067Z,90.20
2022-09-10T12:33:19.059Z,90.61
2022-09-10T12:34:19.045Z,90.77
2022-09-10T12:35:19.051Z,90.86
2022-09-10T12:36:19.063Z,90.56
2022-09-10T12:37:19.049Z,90.36
2022-09-10T12:38:19.031Z,90.46
2022-09-10T12:39:18.992Z,89.36
2022-09-10T12:40:19.003Z,88.90
2022-09-10T12:41:18.986Z,89.30
2022-09-10T12:42:18.992Z,89.70
2022-09-10T12:43:19.070Z,90.06
2022-09-10T12:44:19.053Z,90.00
2022-09-10T12:45:19.006Z,88.49
2022-09-10T12:46:19.127Z,89.80
2022-09-10T12:47:18.965Z,90.70
2022-09-10T12:48:18.993Z,91.11
2022-09-10T12:49:18.952Z,90.41
2022-09-10T12:50:18.949Z,90.11
2022-09-10T12:51:18.940Z,90.20
2022-09-10T12:52:18.883Z,89.95
2022-09-10T12:53:18.913Z,91.05
2022-09-10T12:54:18.878Z,91.91
2022-09-10T12:55:18.832Z,90.49
2022-09-10T12:56:18.852Z,91.15
2022-09-10T12:57:18.815Z,91.60
2022-09-10T12:58:18.799Z,92.06
2022-09-10T12:59:18.836Z,92.66
2022-09-10T13:00:18.988Z,93.37
2022-09-10T13:01:19.051Z,93.07
2022-09-10T13:02:19.444Z,92.56
2022-09-10T13:03:19.195Z,92.56
2022-09-10T13:04:19.329Z,92.56
2022-09-10T13:05:19.826Z,92.66
2022-09-10T13:06:19.281Z,93.16
2022-09-10T13:07:19.416Z,93.57
2022-09-10T13:08:19.549Z,92.10
2022-09-10T13:09:19.985Z,92.60
2022-09-10T13:10:22.078Z,93.27
2022-09-10T13:12:32.448Z,92.91
2022-09-10T13:13:33.430Z,93.61
2022-09-10T13:14:32.917Z,94.07
2022-09-10T13:15:32.958Z,94.27
2022-09-10T13:16:33.094Z,94.27
2022-09-10T13:17:33.585Z,93.87
2022-09-10T13:18:32.743Z,93.87
2022-09-10T13:19:32.729Z,93.66